sensor_id;sensor_type;location;lat;lon;timestamp;P1;durP1;ratioP1;P2;durP2;ratioP2
33254;SDS011;19623;52.482;9.762;2022-07-23T00:01:31;795.70;;;508.33;;
33254;SDS011;19623;52.482;9.762;2022-07-23T00:03:57;786.50;;;478.73;;
33254;SDS011;19623;52.482;9.762;2022-07-23T00:06:23;781.45;;;470.75;;
33254;SDS011;19623;52.482;9.762;2022-07-23T00:08:49;777.72;;;454.33;;
33254;SDS011;19623;52.482;9.762;2022-07-23T00:11:16;769.10;;;437.65;;
33254;SDS011;19623;52.482;9.762;2022-07-23T00:13:42;776.13;;;451.77;;
33254;SDS011;19623;52.482;9.762;2022-07-23T00:16:07;768.55;;;429.45;;
33254;SDS011;19623;52.482;9.762;2022-07-23T00:18:33;771.72;;;435.05;;
33254;SDS011;19623;52.482;9.762;2022-07-23T00:20:59;180.85;;;164.80;;
33254;SDS011;19623;52.482;9.762;2022-07-23T00:23:24;587.70;;;365.40;;
33254;SDS011;19623;52.482;9.762;2022-07-23T00:25:51;687.80;;;380.02;;
33254;SDS011;19623;52.482;9.762;2022-07-23T00:28:17;720.53;;;384.98;;
33254;SDS011;19623;52.482;9.762;2022-07-23T00:30:44;764.75;;;427.98;;
33254;SDS011;19623;52.482;9.762;2022-07-23T00:33:09;760.90;;;419.08;;
33254;SDS011;19623;52.482;9.762;2022-07-23T00:35:36;482.73;;;392.92;;
33254;SDS011;19623;52.482;9.762;2022-07-23T00:38:05;756.45;;;373.00;;
33254;SDS011;19623;52.482;9.762;2022-07-23T00:40:32;737.92;;;480.35;;
33254;SDS011;19623;52.482;9.762;2022-07-23T00:42:58;728.88;;;437.55;;
33254;SDS011;19623;52.482;9.762;2022-07-23T00:45:24;792.25;;;490.88;;
33254;SDS011;19623;52.482;9.762;2022-07-23T00:47:50;772.47;;;444.73;;
33254;SDS011;19623;52.482;9.762;2022-07-23T00:50:16;786.33;;;467.80;;
33254;SDS011;19623;52.482;9.762;2022-07-23T00:52:42;693.58;;;438.65;;
33254;SDS011;19623;52.482;9.762;2022-07-23T00:55:09;755.15;;;448.98;;
33254;SDS011;19623;52.482;9.762;2022-07-23T00:57:35;599.40;;;428.73;;
33254;SDS011;19623;52.482;9.762;2022-07-23T01:00:03;750.20;;;434.20;;
33254;SDS011;19623;52.482;9.762;2022-07-23T01:02:31;753.67;;;439.33;;
33254;SDS011;19623;52.482;9.762;2022-07-23T01:04:56;770.20;;;413.23;;
33254;SDS011;19623;52.482;9.762;2022-07-23T01:07:22;789.03;;;458.17;;
33254;SDS011;19623;52.482;9.762;2022-07-23T01:09:49;615.08;;;456.05;;
33254;SDS011;19623;52.482;9.762;2022-07-23T01:12:16;770.85;;;436.38;;
33254;SDS011;19623;52.482;9.762;2022-07-23T01:14:41;777.90;;;440.25;;
33254;SDS011;19623;52.482;9.762;2022-07-23T01:17:07;795.78;;;474.95;;
33254;SDS011;19623;52.482;9.762;2022-07-23T01:19:32;773.45;;;447.52;;
33254;SDS011;19623;52.482;9.762;2022-07-23T01:21:58;772.17;;;440.83;;
33254;SDS011;19623;52.482;9.762;2022-07-23T01:24:27;779.42;;;433.42;;
33254;SDS011;19623;52.482;9.762;2022-07-23T01:26:53;795.38;;;464.55;;
33254;SDS011;19623;52.482;9.762;2022-07-23T01:29:19;783.97;;;438.88;;
33254;SDS011;19623;52.482;9.762;2022-07-23T01:31:46;535.10;;;414.48;;
33254;SDS011;19623;52.482;9.762;2022-07-23T01:34:12;7.28;;;5.05;;
33254;SDS011;19623;52.482;9.762;2022-07-23T01:36:38;191.95;;;146.85;;
33254;SDS011;19623;52.482;9.762;2022-07-23T01:39:05;591.38;;;318.52;;
33254;SDS011;19623;52.482;9.762;2022-07-23T01:41:32;588.85;;;313.30;;
33254;SDS011;19623;52.482;9.762;2022-07-23T01:43:59;544.65;;;311.77;;
33254;SDS011;19623;52.482;9.762;2022-07-23T01:46:25;721.42;;;324.42;;
33254;SDS011;19623;52.482;9.762;2022-07-23T01:48:51;709.17;;;400.52;;
33254;SDS011;19623;52.482;9.762;2022-07-23T01:51:17;766.53;;;414.38;;
33254;SDS011;19623;52.482;9.762;2022-07-23T01:53:43;722.40;;;402.13;;
33254;SDS011;19623;52.482;9.762;2022-07-23T01:56:08;630.45;;;383.80;;
33254;SDS011;19623;52.482;9.762;2022-07-23T01:58:34;721.80;;;400.55;;
33254;SDS011;19623;52.482;9.762;2022-07-23T02:01:00;724.10;;;428.58;;
33254;SDS011;19623;52.482;9.762;2022-07-23T02:03:26;671.22;;;412.80;;
33254;SDS011;19623;52.482;9.762;2022-07-23T02:05:51;717.13;;;435.58;;
33254;SDS011;19623;52.482;9.762;2022-07-23T02:08:17;716.58;;;414.67;;
33254;SDS011;19623;52.482;9.762;2022-07-23T02:10:43;649.78;;;400.00;;
33254;SDS011;19623;52.482;9.762;2022-07-23T02:13:10;650.40;;;396.77;;
33254;SDS011;19623;52.482;9.762;2022-07-23T02:15:36;585.38;;;390.65;;
33254;SDS011;19623;52.482;9.762;2022-07-23T02:18:02;587.55;;;393.52;;
33254;SDS011;19623;52.482;9.762;2022-07-23T02:20:27;604.75;;;425.50;;
33254;SDS011;19623;52.482;9.762;2022-07-23T02:22:53;582.65;;;404.15;;
33254;SDS011;19623;52.482;9.762;2022-07-23T02:25:19;716.88;;;424.58;;
33254;SDS011;19623;52.482;9.762;2022-07-23T02:27:44;746.22;;;425.50;;
33254;SDS011;19623;52.482;9.762;2022-07-23T02:30:10;696.65;;;413.30;;
33254;SDS011;19623;52.482;9.762;2022-07-23T02:32:36;735.40;;;422.88;;
33254;SDS011;19623;52.482;9.762;2022-07-23T02:35:03;172.02;;;122.00;;
33254;SDS011;19623;52.482;9.762;2022-07-23T02:37:29;752.67;;;408.00;;
33254;SDS011;19623;52.482;9.762;2022-07-23T02:39:56;740.33;;;394.52;;
33254;SDS011;19623;52.482;9.762;2022-07-23T02:44:52;345.25;;;263.60;;
33254;SDS011;19623;52.482;9.762;2022-07-23T02:47:18;548.78;;;363.05;;
33254;SDS011;19623;52.482;9.762;2022-07-23T02:49:44;689.92;;;385.00;;
33254;SDS011;19623;52.482;9.762;2022-07-23T02:52:09;20.90;;;18.80;;
33254;SDS011;19623;52.482;9.762;2022-07-23T02:54:35;741.25;;;404.08;;
33254;SDS011;19623;52.482;9.762;2022-07-23T02:57:02;731.50;;;417.48;;
33254;SDS011;19623;52.482;9.762;2022-07-23T02:59:28;729.60;;;440.20;;
33254;SDS011;19623;52.482;9.762;2022-07-23T03:01:54;667.90;;;422.02;;
33254;SDS011;19623;52.482;9.762;2022-07-23T03:04:19;754.58;;;433.08;;
33254;SDS011;19623;52.482;9.762;2022-07-23T03:06:45;730.30;;;422.13;;
33254;SDS011;19623;52.482;9.762;2022-07-23T03:09:11;66.60;;;62.45;;
33254;SDS011;19623;52.482;9.762;2022-07-23T03:11:36;12.88;;;5.93;;
33254;SDS011;19623;52.482;9.762;2022-07-23T03:14:02;18.15;;;7.57;;
33254;SDS011;19623;52.482;9.762;2022-07-23T03:16:28;10.15;;;6.13;;
33254;SDS011;19623;52.482;9.762;2022-07-23T03:18:53;14.95;;;6.68;;
33254;SDS011;19623;52.482;9.762;2022-07-23T03:21:19;9.98;;;6.45;;
33254;SDS011;19623;52.482;9.762;2022-07-23T03:23:45;8.80;;;5.88;;
33254;SDS011;19623;52.482;9.762;2022-07-23T03:26:10;10.40;;;6.97;;
33254;SDS011;19623;52.482;9.762;2022-07-23T03:28:36;12.85;;;6.28;;
33254;SDS011;19623;52.482;9.762;2022-07-23T03:31:02;11.80;;;6.70;;
33254;SDS011;19623;52.482;9.762;2022-07-23T03:33:28;12.10;;;7.32;;
33254;SDS011;19623;52.482;9.762;2022-07-23T03:35:53;557.85;;;424.50;;
33254;SDS011;19623;52.482;9.762;2022-07-23T03:38:19;723.38;;;448.58;;
33254;SDS011;19623;52.482;9.762;2022-07-23T03:40:45;703.08;;;457.83;;
33254;SDS011;19623;52.482;9.762;2022-07-23T03:43:10;765.00;;;477.00;;
33254;SDS011;19623;52.482;9.762;2022-07-23T03:45:36;650.50;;;482.88;;
33254;SDS011;19623;52.482;9.762;2022-07-23T03:48:02;721.17;;;479.50;;
33254;SDS011;19623;52.482;9.762;2022-07-23T03:50:28;801.58;;;497.48;;
33254;SDS011;19623;52.482;9.762;2022-07-23T03:52:53;788.78;;;498.10;;
33254;SDS011;19623;52.482;9.762;2022-07-23T03:55:19;783.28;;;503.88;;
33254;SDS011;19623;52.482;9.762;2022-07-23T03:57:45;733.80;;;493.50;;
33254;SDS011;19623;52.482;9.762;2022-07-23T04:00:11;795.35;;;481.27;;
33254;SDS011;19623;52.482;9.762;2022-07-23T04:02:38;791.60;;;466.88;;
33254;SDS011;19623;52.482;9.762;2022-07-23T04:05:04;776.97;;;463.55;;
33254;SDS011;19623;52.482;9.762;2022-07-23T04:07:31;722.08;;;461.92;;
33254;SDS011;19623;52.482;9.762;2022-07-23T04:09:56;464.35;;;415.55;;
33254;SDS011;19623;52.482;9.762;2022-07-23T04:12:23;13.73;;;7.47;;
33254;SDS011;19623;52.482;9.762;2022-07-23T04:14:49;477.58;;;304.70;;
33254;SDS011;19623;52.482;9.762;2022-07-23T04:17:15;653.85;;;445.00;;
33254;SDS011;19623;52.482;9.762;2022-07-23T04:19:41;360.67;;;326.80;;
33254;SDS011;19623;52.482;9.762;2022-07-23T04:22:08;787.78;;;462.08;;
33254;SDS011;19623;52.482;9.762;2022-07-23T04:24:36;769.78;;;457.58;;
33254;SDS011;19623;52.482;9.762;2022-07-23T04:27:02;694.65;;;443.40;;
33254;SDS011;19623;52.482;9.762;2022-07-23T04:29:29;649.90;;;466.92;;
33254;SDS011;19623;52.482;9.762;2022-07-23T04:31:55;657.90;;;478.48;;
33254;SDS011;19623;52.482;9.762;2022-07-23T04:34:22;782.85;;;463.45;;
33254;SDS011;19623;52.482;9.762;2022-07-23T04:36:48;372.92;;;335.38;;
33254;SDS011;19623;52.482;9.762;2022-07-23T04:39:14;798.60;;;490.35;;
33254;SDS011;19623;52.482;9.762;2022-07-23T04:41:39;787.30;;;489.85;;
33254;SDS011;19623;52.482;9.762;2022-07-23T04:44:05;769.50;;;478.63;;
33254;SDS011;19623;52.482;9.762;2022-07-23T04:46:31;773.17;;;472.00;;
33254;SDS011;19623;52.482;9.762;2022-07-23T04:48:57;736.65;;;474.33;;
33254;SDS011;19623;52.482;9.762;2022-07-23T04:51:23;580.67;;;479.98;;
33254;SDS011;19623;52.482;9.762;2022-07-23T04:53:49;783.22;;;476.75;;
33254;SDS011;19623;52.482;9.762;2022-07-23T04:56:15;802.58;;;498.88;;
33254;SDS011;19623;52.482;9.762;2022-07-23T04:58:41;772.22;;;485.70;;
33254;SDS011;19623;52.482;9.762;2022-07-23T05:01:06;711.17;;;477.58;;
33254;SDS011;19623;52.482;9.762;2022-07-23T05:03:32;710.45;;;479.67;;
33254;SDS011;19623;52.482;9.762;2022-07-23T05:05:58;605.10;;;456.35;;
33254;SDS011;19623;52.482;9.762;2022-07-23T05:08:24;669.40;;;458.95;;
33254;SDS011;19623;52.482;9.762;2022-07-23T05:10:50;707.50;;;456.02;;
33254;SDS011;19623;52.482;9.762;2022-07-23T05:13:16;715.83;;;462.40;;
33254;SDS011;19623;52.482;9.762;2022-07-23T05:15:42;685.92;;;451.08;;
33254;SDS011;19623;52.482;9.762;2022-07-23T05:18:11;699.63;;;458.33;;
33254;SDS011;19623;52.482;9.762;2022-07-23T05:20:37;678.45;;;458.85;;
33254;SDS011;19623;52.482;9.762;2022-07-23T05:23:03;558.92;;;424.90;;
33254;SDS011;19623;52.482;9.762;2022-07-23T05:25:29;649.47;;;444.35;;
33254;SDS011;19623;52.482;9.762;2022-07-23T05:27:55;760.10;;;466.13;;
33254;SDS011;19623;52.482;9.762;2022-07-23T05:30:21;746.03;;;470.50;;
33254;SDS011;19623;52.482;9.762;2022-07-23T05:32:46;703.33;;;472.33;;
33254;SDS011;19623;52.482;9.762;2022-07-23T05:35:12;756.60;;;489.13;;
33254;SDS011;19623;52.482;9.762;2022-07-23T05:37:38;746.28;;;481.00;;
33254;SDS011;19623;52.482;9.762;2022-07-23T05:40:04;721.22;;;489.15;;
33254;SDS011;19623;52.482;9.762;2022-07-23T05:42:33;698.15;;;483.58;;
33254;SDS011;19623;52.482;9.762;2022-07-23T05:44:59;773.28;;;494.50;;
33254;SDS011;19623;52.482;9.762;2022-07-23T05:47:25;760.97;;;489.63;;
33254;SDS011;19623;52.482;9.762;2022-07-23T05:49:50;756.38;;;498.77;;
33254;SDS011;19623;52.482;9.762;2022-07-23T05:52:16;753.40;;;502.42;;
33254;SDS011;19623;52.482;9.762;2022-07-23T05:54:42;592.42;;;500.73;;
33254;SDS011;19623;52.482;9.762;2022-07-23T05:57:07;747.30;;;512.85;;
33254;SDS011;19623;52.482;9.762;2022-07-23T05:59:33;677.70;;;511.38;;
33254;SDS011;19623;52.482;9.762;2022-07-23T06:01:59;705.53;;;497.88;;
33254;SDS011;19623;52.482;9.762;2022-07-23T06:04:25;771.63;;;481.85;;
33254;SDS011;19623;52.482;9.762;2022-07-23T06:06:50;778.83;;;464.42;;
33254;SDS011;19623;52.482;9.762;2022-07-23T06:09:16;772.30;;;435.50;;
33254;SDS011;19623;52.482;9.762;2022-07-23T06:11:42;776.30;;;454.10;;
33254;SDS011;19623;52.482;9.762;2022-07-23T06:14:08;770.88;;;428.55;;
33254;SDS011;19623;52.482;9.762;2022-07-23T06:16:33;714.33;;;377.95;;
33254;SDS011;19623;52.482;9.762;2022-07-23T06:18:59;773.67;;;448.75;;
33254;SDS011;19623;52.482;9.762;2022-07-23T06:21:25;783.28;;;484.05;;
33254;SDS011;19623;52.482;9.762;2022-07-23T06:23:50;787.05;;;479.95;;
33254;SDS011;19623;52.482;9.762;2022-07-23T06:26:16;785.72;;;480.10;;
33254;SDS011;19623;52.482;9.762;2022-07-23T06:28:42;781.70;;;475.73;;
33254;SDS011;19623;52.482;9.762;2022-07-23T06:31:07;785.60;;;483.20;;
33254;SDS011;19623;52.482;9.762;2022-07-23T06:33:33;784.10;;;482.48;;
33254;SDS011;19623;52.482;9.762;2022-07-23T06:35:59;796.28;;;508.42;;
33254;SDS011;19623;52.482;9.762;2022-07-23T06:38:25;802.28;;;523.42;;
33254;SDS011;19623;52.482;9.762;2022-07-23T06:40:51;799.88;;;516.10;;
33254;SDS011;19623;52.482;9.762;2022-07-23T06:43:16;800.63;;;526.72;;
33254;SDS011;19623;52.482;9.762;2022-07-23T06:45:42;811.65;;;544.63;;
33254;SDS011;19623;52.482;9.762;2022-07-23T06:48:08;803.17;;;536.35;;
33254;SDS011;19623;52.482;9.762;2022-07-23T06:50:34;809.67;;;555.65;;
33254;SDS011;19623;52.482;9.762;2022-07-23T06:52:59;812.75;;;559.72;;
33254;SDS011;19623;52.482;9.762;2022-07-23T06:55:25;13.10;;;5.93;;
33254;SDS011;19623;52.482;9.762;2022-07-23T06:57:51;761.42;;;420.23;;
33254;SDS011;19623;52.482;9.762;2022-07-23T07:00:17;804.00;;;534.83;;
33254;SDS011;19623;52.482;9.762;2022-07-23T07:02:43;796.40;;;522.55;;
33254;SDS011;19623;52.482;9.762;2022-07-23T07:05:09;792.35;;;537.30;;
33254;SDS011;19623;52.482;9.762;2022-07-23T07:07:35;769.45;;;543.55;;
33254;SDS011;19623;52.482;9.762;2022-07-23T07:10:06;808.17;;;555.35;;
33254;SDS011;19623;52.482;9.762;2022-07-23T07:12:32;788.60;;;555.00;;
33254;SDS011;19623;52.482;9.762;2022-07-23T07:14:57;821.83;;;581.20;;
33254;SDS011;19623;52.482;9.762;2022-07-23T07:17:24;772.08;;;563.88;;
33254;SDS011;19623;52.482;9.762;2022-07-23T07:19:49;821.40;;;593.53;;
33254;SDS011;19623;52.482;9.762;2022-07-23T07:22:15;825.15;;;598.78;;
33254;SDS011;19623;52.482;9.762;2022-07-23T07:24:40;774.95;;;575.20;;
33254;SDS011;19623;52.482;9.762;2022-07-23T07:27:06;740.70;;;566.88;;
33254;SDS011;19623;52.482;9.762;2022-07-23T07:29:32;819.58;;;602.25;;
33254;SDS011;19623;52.482;9.762;2022-07-23T07:31:58;816.17;;;617.13;;
33254;SDS011;19623;52.482;9.762;2022-07-23T07:34:23;760.80;;;605.28;;
33254;SDS011;19623;52.482;9.762;2022-07-23T07:36:49;808.30;;;642.15;;
33254;SDS011;19623;52.482;9.762;2022-07-23T07:39:15;797.10;;;658.08;;
33254;SDS011;19623;52.482;9.762;2022-07-23T07:41:40;845.50;;;662.83;;
33254;SDS011;19623;52.482;9.762;2022-07-23T07:44:06;830.75;;;635.40;;
33254;SDS011;19623;52.482;9.762;2022-07-23T07:46:32;822.55;;;623.92;;
33254;SDS011;19623;52.482;9.762;2022-07-23T07:48:58;756.80;;;599.20;;
33254;SDS011;19623;52.482;9.762;2022-07-23T07:51:24;835.58;;;645.67;;
33254;SDS011;19623;52.482;9.762;2022-07-23T07:53:50;808.08;;;623.50;;
33254;SDS011;19623;52.482;9.762;2022-07-23T07:56:15;811.08;;;648.47;;
33254;SDS011;19623;52.482;9.762;2022-07-23T07:58:41;806.60;;;624.65;;
33254;SDS011;19623;52.482;9.762;2022-07-23T08:01:07;800.28;;;621.78;;
33254;SDS011;19623;52.482;9.762;2022-07-23T08:03:32;742.78;;;616.63;;
33254;SDS011;19623;52.482;9.762;2022-07-23T08:05:58;804.30;;;623.22;;
33254;SDS011;19623;52.482;9.762;2022-07-23T08:08:24;813.67;;;651.90;;
33254;SDS011;19623;52.482;9.762;2022-07-23T08:10:49;845.45;;;670.22;;
33254;SDS011;19623;52.482;9.762;2022-07-23T08:13:15;843.53;;;671.38;;
33254;SDS011;19623;52.482;9.762;2022-07-23T08:15:42;850.80;;;689.28;;
33254;SDS011;19623;52.482;9.762;2022-07-23T08:18:08;849.03;;;688.45;;
33254;SDS011;19623;52.482;9.762;2022-07-23T08:20:34;857.60;;;688.85;;
33254;SDS011;19623;52.482;9.762;2022-07-23T08:23:03;852.85;;;692.40;;
33254;SDS011;19623;52.482;9.762;2022-07-23T08:25:34;858.00;;;705.72;;
33254;SDS011;19623;52.482;9.762;2022-07-23T08:28:04;850.80;;;702.17;;
33254;SDS011;19623;52.482;9.762;2022-07-23T08:30:31;870.65;;;729.53;;
33254;SDS011;19623;52.482;9.762;2022-07-23T08:32:59;866.13;;;727.10;;
33254;SDS011;19623;52.482;9.762;2022-07-23T08:35:28;863.08;;;722.03;;
33254;SDS011;19623;52.482;9.762;2022-07-23T08:37:59;853.33;;;710.40;;
33254;SDS011;19623;52.482;9.762;2022-07-23T08:40:28;841.47;;;689.85;;
33254;SDS011;19623;52.482;9.762;2022-07-23T08:42:56;827.53;;;694.80;;
33254;SDS011;19623;52.482;9.762;2022-07-23T08:45:22;860.83;;;715.33;;
33254;SDS011;19623;52.482;9.762;2022-07-23T08:47:52;834.75;;;722.20;;
33254;SDS011;19623;52.482;9.762;2022-07-23T08:52:48;821.08;;;685.80;;
33254;SDS011;19623;52.482;9.762;2022-07-23T08:55:15;827.63;;;682.65;;
33254;SDS011;19623;52.482;9.762;2022-07-23T08:57:43;854.42;;;683.72;;
33254;SDS011;19623;52.482;9.762;2022-07-23T09:00:09;850.05;;;681.15;;
33254;SDS011;19623;52.482;9.762;2022-07-23T09:02:40;832.97;;;662.35;;
33254;SDS011;19623;52.482;9.762;2022-07-23T09:05:07;838.03;;;675.30;;
33254;SDS011;19623;52.482;9.762;2022-07-23T09:07:35;842.00;;;688.58;;
33254;SDS011;19623;52.482;9.762;2022-07-23T09:10:08;854.85;;;721.25;;
33254;SDS011;19623;52.482;9.762;2022-07-23T09:12:35;844.97;;;685.63;;
33254;SDS011;19623;52.482;9.762;2022-07-23T09:15:08;839.38;;;699.42;;
33254;SDS011;19623;52.482;9.762;2022-07-23T09:17:38;844.40;;;707.58;;
33254;SDS011;19623;52.482;9.762;2022-07-23T09:20:09;836.03;;;694.75;;
33254;SDS011;19623;52.482;9.762;2022-07-23T09:22:36;830.40;;;673.47;;
33254;SDS011;19623;52.482;9.762;2022-07-23T09:25:06;641.45;;;517.28;;
33254;SDS011;19623;52.482;9.762;2022-07-23T09:27:49;822.72;;;651.50;;
33254;SDS011;19623;52.482;9.762;2022-07-23T09:30:18;639.60;;;580.78;;
33254;SDS011;19623;52.482;9.762;2022-07-23T09:32:44;473.17;;;426.73;;
33254;SDS011;19623;52.482;9.762;2022-07-23T09:35:45;3.22;;;1.33;;
33254;SDS011;19623;52.482;9.762;2022-07-23T09:38:16;5.18;;;1.58;;
33254;SDS011;19623;52.482;9.762;2022-07-23T09:40:43;3.40;;;1.30;;
33254;SDS011;19623;52.482;9.762;2022-07-23T09:43:09;2.85;;;1.27;;
33254;SDS011;19623;52.482;9.762;2022-07-23T09:45:35;5.30;;;1.50;;
33254;SDS011;19623;52.482;9.762;2022-07-23T09:48:37;2.42;;;1.10;;
33254;SDS011;19623;52.482;9.762;2022-07-23T09:51:01;4.28;;;1.55;;
33254;SDS011;19623;52.482;9.762;2022-07-23T09:53:29;3.35;;;1.60;;
33254;SDS011;19623;52.482;9.762;2022-07-23T09:55:55;5.43;;;1.25;;
33254;SDS011;19623;52.482;9.762;2022-07-23T09:58:25;25.80;;;24.33;;
33254;SDS011;19623;52.482;9.762;2022-07-23T10:00:52;1.40;;;1.20;;
33254;SDS011;19623;52.482;9.762;2022-07-23T10:03:18;2.17;;;1.20;;
33254;SDS011;19623;52.482;9.762;2022-07-23T10:05:45;2.75;;;1.13;;
33254;SDS011;19623;52.482;9.762;2022-07-23T10:08:13;3.50;;;1.35;;
33254;SDS011;19623;52.482;9.762;2022-07-23T10:10:43;6.23;;;1.50;;
33254;SDS011;19623;52.482;9.762;2022-07-23T10:13:11;3.45;;;1.27;;
33254;SDS011;19623;52.482;9.762;2022-07-23T10:15:56;3.35;;;1.10;;
33254;SDS011;19623;52.482;9.762;2022-07-23T10:18:21;524.33;;;469.02;;
33254;SDS011;19623;52.482;9.762;2022-07-23T10:20:48;6.30;;;1.30;;
33254;SDS011;19623;52.482;9.762;2022-07-23T10:23:28;5.20;;;1.42;;
33254;SDS011;19623;52.482;9.762;2022-07-23T10:26:05;2.20;;;1.17;;
33254;SDS011;19623;52.482;9.762;2022-07-23T10:31:41;3.97;;;1.40;;
33254;SDS011;19623;52.482;9.762;2022-07-23T10:34:44;5.10;;;1.20;;
33254;SDS011;19623;52.482;9.762;2022-07-23T10:37:21;1.67;;;1.30;;
33254;SDS011;19623;52.482;9.762;2022-07-23T10:42:40;4.05;;;1.17;;
33254;SDS011;19623;52.482;9.762;2022-07-23T10:47:55;725.33;;;645.95;;
33254;SDS011;19623;52.482;9.762;2022-07-23T10:50:36;6.63;;;1.67;;
33254;SDS011;19623;52.482;9.762;2022-07-23T10:53:17;2.17;;;1.10;;
33254;SDS011;19623;52.482;9.762;2022-07-23T10:55:44;3.45;;;1.13;;
33254;SDS011;19623;52.482;9.762;2022-07-23T10:58:16;5.32;;;1.38;;
33254;SDS011;19623;52.482;9.762;2022-07-23T11:04:04;6.53;;;1.27;;
33254;SDS011;19623;52.482;9.762;2022-07-23T11:09:29;3.38;;;0.90;;
33254;SDS011;19623;52.482;9.762;2022-07-23T11:18:19;1.85;;;0.82;;
33254;SDS011;19623;52.482;9.762;2022-07-23T11:20:21;3.17;;;0.90;;
33254;SDS011;19623;52.482;9.762;2022-07-23T11:22:49;4.35;;;2.45;;
33254;SDS011;19623;52.482;9.762;2022-07-23T11:27:48;2.45;;;0.90;;
33254;SDS011;19623;52.482;9.762;2022-07-23T11:32:53;2.25;;;1.33;;
33254;SDS011;19623;52.482;9.762;2022-07-23T11:35:41;2.17;;;0.93;;
33254;SDS011;19623;52.482;9.762;2022-07-23T11:38:13;208.07;;;196.25;;
33254;SDS011;19623;52.482;9.762;2022-07-23T11:40:41;2.17;;;0.80;;
33254;SDS011;19623;52.482;9.762;2022-07-23T11:43:09;518.70;;;482.48;;
33254;SDS011;19623;52.482;9.762;2022-07-23T11:48:09;5.68;;;1.20;;
33254;SDS011;19623;52.482;9.762;2022-07-23T11:50:48;72.28;;;67.43;;
33254;SDS011;19623;52.482;9.762;2022-07-23T11:53:33;2.22;;;1.00;;
33254;SDS011;19623;52.482;9.762;2022-07-23T11:58:32;478.23;;;442.92;;
33254;SDS011;19623;52.482;9.762;2022-07-23T12:00:58;830.88;;;722.40;;
33254;SDS011;19623;52.482;9.762;2022-07-23T12:03:24;858.28;;;762.67;;
33254;SDS011;19623;52.482;9.762;2022-07-23T12:05:55;843.58;;;739.65;;
33254;SDS011;19623;52.482;9.762;2022-07-23T12:08:22;865.53;;;769.00;;
33254;SDS011;19623;52.482;9.762;2022-07-23T12:10:48;880.72;;;783.63;;
33254;SDS011;19623;52.482;9.762;2022-07-23T12:13:15;867.75;;;772.50;;
33254;SDS011;19623;52.482;9.762;2022-07-23T12:15:43;883.25;;;785.75;;
33254;SDS011;19623;52.482;9.762;2022-07-23T12:18:19;894.38;;;796.75;;
33254;SDS011;19623;52.482;9.762;2022-07-23T12:20:50;901.92;;;803.83;;
33254;SDS011;19623;52.482;9.762;2022-07-23T12:23:18;919.17;;;820.30;;
33254;SDS011;19623;52.482;9.762;2022-07-23T12:25:46;917.80;;;819.03;;
33254;SDS011;19623;52.482;9.762;2022-07-23T12:28:27;789.47;;;707.08;;
33254;SDS011;19623;52.482;9.762;2022-07-23T12:30:55;890.83;;;793.78;;
33254;SDS011;19623;52.482;9.762;2022-07-23T12:33:22;902.75;;;804.70;;
33254;SDS011;19623;52.482;9.762;2022-07-23T12:36:00;866.10;;;774.58;;
33254;SDS011;19623;52.482;9.762;2022-07-23T12:38:35;851.28;;;774.00;;
33254;SDS011;19623;52.482;9.762;2022-07-23T12:41:03;847.15;;;759.50;;
33254;SDS011;19623;52.482;9.762;2022-07-23T12:43:34;899.85;;;803.63;;
33254;SDS011;19623;52.482;9.762;2022-07-23T12:46:06;900.92;;;805.53;;
33254;SDS011;19623;52.482;9.762;2022-07-23T12:51:28;924.25;;;828.38;;
33254;SDS011;19623;52.482;9.762;2022-07-23T12:53:56;917.05;;;819.10;;
33254;SDS011;19623;52.482;9.762;2022-07-23T12:56:40;923.28;;;824.38;;
33254;SDS011;19623;52.482;9.762;2022-07-23T12:59:10;915.85;;;819.53;;
33254;SDS011;19623;52.482;9.762;2022-07-23T13:01:44;825.22;;;743.55;;
33254;SDS011;19623;52.482;9.762;2022-07-23T13:04:23;865.13;;;771.53;;
33254;SDS011;19623;52.482;9.762;2022-07-23T13:09:23;817.33;;;733.22;;
33254;SDS011;19623;52.482;9.762;2022-07-23T13:11:52;819.22;;;730.40;;
33254;SDS011;19623;52.482;9.762;2022-07-23T13:14:19;929.15;;;831.85;;
33254;SDS011;19623;52.482;9.762;2022-07-23T13:16:45;931.80;;;841.10;;
33254;SDS011;19623;52.482;9.762;2022-07-23T13:19:12;928.30;;;837.13;;
33254;SDS011;19623;52.482;9.762;2022-07-23T13:21:38;940.60;;;848.25;;
33254;SDS011;19623;52.482;9.762;2022-07-23T13:24:06;954.42;;;858.08;;
33254;SDS011;19623;52.482;9.762;2022-07-23T13:26:32;966.60;;;867.40;;
33254;SDS011;19623;52.482;9.762;2022-07-23T13:28:58;974.53;;;876.00;;
33254;SDS011;19623;52.482;9.762;2022-07-23T13:31:24;970.38;;;873.20;;
33254;SDS011;19623;52.482;9.762;2022-07-23T13:33:50;975.33;;;881.97;;
33254;SDS011;19623;52.482;9.762;2022-07-23T13:36:16;966.90;;;876.00;;
33254;SDS011;19623;52.482;9.762;2022-07-23T13:38:42;947.15;;;868.78;;
33254;SDS011;19623;52.482;9.762;2022-07-23T13:41:07;948.08;;;859.47;;
33254;SDS011;19623;52.482;9.762;2022-07-23T13:43:33;946.83;;;859.28;;
33254;SDS011;19623;52.482;9.762;2022-07-23T13:45:59;941.08;;;858.08;;
33254;SDS011;19623;52.482;9.762;2022-07-23T13:48:25;935.13;;;847.95;;
33254;SDS011;19623;52.482;9.762;2022-07-23T13:50:50;935.08;;;850.05;;
33254;SDS011;19623;52.482;9.762;2022-07-23T13:53:18;943.22;;;856.38;;
33254;SDS011;19623;52.482;9.762;2022-07-23T13:55:46;965.60;;;870.13;;
33254;SDS011;19623;52.482;9.762;2022-07-23T13:58:13;982.85;;;885.60;;
33254;SDS011;19623;52.482;9.762;2022-07-23T14:00:40;982.25;;;882.28;;
33254;SDS011;19623;52.482;9.762;2022-07-23T14:03:08;972.25;;;873.90;;
33254;SDS011;19623;52.482;9.762;2022-07-23T14:05:34;978.92;;;880.03;;
33254;SDS011;19623;52.482;9.762;2022-07-23T14:08:00;983.67;;;883.80;;
33254;SDS011;19623;52.482;9.762;2022-07-23T14:10:27;966.03;;;870.00;;
33254;SDS011;19623;52.482;9.762;2022-07-23T14:12:53;974.13;;;879.10;;
33254;SDS011;19623;52.482;9.762;2022-07-23T14:15:21;958.33;;;865.05;;
33254;SDS011;19623;52.482;9.762;2022-07-23T14:17:49;964.33;;;868.13;;
33254;SDS011;19623;52.482;9.762;2022-07-23T14:20:15;968.90;;;870.08;;
33254;SDS011;19623;52.482;9.762;2022-07-23T14:22:41;948.75;;;856.65;;
33254;SDS011;19623;52.482;9.762;2022-07-23T14:25:07;954.20;;;854.88;;
33254;SDS011;19623;52.482;9.762;2022-07-23T14:27:33;954.83;;;859.60;;
33254;SDS011;19623;52.482;9.762;2022-07-23T14:29:59;942.67;;;851.50;;
33254;SDS011;19623;52.482;9.762;2022-07-23T14:32:25;950.20;;;854.38;;
33254;SDS011;19623;52.482;9.762;2022-07-23T14:34:51;932.42;;;841.70;;
33254;SDS011;19623;52.482;9.762;2022-07-23T14:37:17;940.50;;;849.67;;
33254;SDS011;19623;52.482;9.762;2022-07-23T14:39:43;943.63;;;854.88;;
33254;SDS011;19623;52.482;9.762;2022-07-23T14:42:10;950.80;;;857.40;;
33254;SDS011;19623;52.482;9.762;2022-07-23T14:44:36;942.90;;;849.83;;
33254;SDS011;19623;52.482;9.762;2022-07-23T14:47:02;940.17;;;841.85;;